sensor_id;sensor_type;location;lat;lon;timestamp;temperature;humidity
51021;DHT22;38907;45.562;8.856;2023-02-26T00:02:59;8.40;99.90
51021;DHT22;38907;45.562;8.856;2023-02-26T00:08:02;8.20;99.90
51021;DHT22;38907;45.562;8.856;2023-02-26T00:13:08;7.80;99.90
51021;DHT22;38907;45.562;8.856;2023-02-26T00:18:13;7.80;99.90
51021;DHT22;38907;45.562;8.856;2023-02-26T00:23:18;8.00;99.90
51021;DHT22;38907;45.562;8.856;2023-02-26T00:28:21;8.30;99.90
51021;DHT22;38907;45.562;8.856;2023-02-26T00:33:23;8.30;99.90
51021;DHT22;38907;45.562;8.856;2023-02-26T00:38:29;8.40;99.90
51021;DHT22;38907;45.562;8.856;2023-02-26T00:43:33;8.40;99.90
51021;DHT22;38907;45.562;8.856;2023-02-26T00:48:43;8.20;99.90
51021;DHT22;38907;45.562;8.856;2023-02-26T00:53:58;8.20;99.90
51021;DHT22;38907;45.562;8.856;2023-02-26T00:59:04;8.30;99.90
51021;DHT22;38907;45.562;8.856;2023-02-26T01:04:06;8.20;99.90
51021;DHT22;38907;45.562;8.856;2023-02-26T01:09:16;7.90;99.90
51021;DHT22;38907;45.562;8.856;2023-02-26T01:14:19;7.80;99.90
51021;DHT22;38907;45.562;8.856;2023-02-26T01:19:28;7.80;99.90
51021;DHT22;38907;45.562;8.856;2023-02-26T01:24:34;7.80;99.90
51021;DHT22;38907;45.562;8.856;2023-02-26T01:29:37;7.80;99.90
51021;DHT22;38907;45.562;8.856;2023-02-26T01:34:45;7.70;99.90
51021;DHT22;38907;45.562;8.856;2023-02-26T01:45:16;7.70;99.90
51021;DHT22;38907;45.562;8.856;2023-02-26T01:50:23;7.70;99.90
51021;DHT22;38907;45.562;8.856;2023-02-26T01:55:30;7.70;99.90
51021;DHT22;38907;45.562;8.856;2023-02-26T02:00:32;7.70;99.90
51021;DHT22;38907;45.562;8.856;2023-02-26T02:05:40;7.80;99.90
51021;DHT22;38907;45.562;8.856;2023-02-26T02:10:45;7.60;99.90
51021;DHT22;38907;45.562;8.856;2023-02-26T02:15:54;7.50;99.90
51021;DHT22;38907;45.562;8.856;2023-02-26T02:31:59;7.80;99.90
51021;DHT22;38907;45.562;8.856;2023-02-26T02:37:04;8.00;99.90
51021;DHT22;38907;45.562;8.856;2023-02-26T02:42:17;8.10;99.90
51021;DHT22;38907;45.562;8.856;2023-02-26T02:47:22;8.20;99.90
51021;DHT22;38907;45.562;8.856;2023-02-26T02:52:27;8.10;99.90
51021;DHT22;38907;45.562;8.856;2023-02-26T02:57:34;8.30;99.90
51021;DHT22;38907;45.562;8.856;2023-02-26T03:02:45;8.30;99.90
51021;DHT22;38907;45.562;8.856;2023-02-26T03:07:50;8.30;99.90
51021;DHT22;38907;45.562;8.856;2023-02-26T03:12:53;8.40;99.70
51021;DHT22;38907;45.562;8.856;2023-02-26T03:18:02;8.40;99.20
51021;DHT22;38907;45.562;8.856;2023-02-26T03:23:12;8.40;98.50
51021;DHT22;38907;45.562;8.856;2023-02-26T03:28:21;8.30;97.60
51021;DHT22;38907;45.562;8.856;2023-02-26T03:33:37;8.40;97.00
51021;DHT22;38907;45.562;8.856;2023-02-26T03:38:52;8.40;96.80
51021;DHT22;38907;45.562;8.856;2023-02-26T03:43:59;8.40;96.40
51021;DHT22;38907;45.562;8.856;2023-02-26T03:49:06;8.30;96.40
51021;DHT22;38907;45.562;8.856;2023-02-26T03:54:14;8.30;97.20
51021;DHT22;38907;45.562;8.856;2023-02-26T03:59:19;8.30;97.20
51021;DHT22;38907;45.562;8.856;2023-02-26T04:04:25;8.40;96.80
51021;DHT22;38907;45.562;8.856;2023-02-26T04:09:28;8.40;96.90
51021;DHT22;38907;45.562;8.856;2023-02-26T04:14:30;8.40;95.40
51021;DHT22;38907;45.562;8.856;2023-02-26T04:19:33;8.40;94.60
51021;DHT22;38907;45.562;8.856;2023-02-26T04:24:35;8.30;94.70
51021;DHT22;38907;45.562;8.856;2023-02-26T04:29:37;8.30;94.60
51021;DHT22;38907;45.562;8.856;2023-02-26T04:34:40;8.20;94.90
51021;DHT22;38907;45.562;8.856;2023-02-26T04:39:42;8.00;96.70
51021;DHT22;38907;45.562;8.856;2023-02-26T04:44:44;7.90;96.80
51021;DHT22;38907;45.562;8.856;2023-02-26T04:49:47;7.80;96.40
51021;DHT22;38907;45.562;8.856;2023-02-26T04:54:49;7.80;95.30
51021;DHT22;38907;45.562;8.856;2023-02-26T04:59:51;7.90;94.70
51021;DHT22;38907;45.562;8.856;2023-02-26T05:04:54;8.10;93.50
51021;DHT22;38907;45.562;8.856;2023-02-26T05:09:56;8.20;92.50
51021;DHT22;38907;45.562;8.856;2023-02-26T05:14:58;8.30;92.70
51021;DHT22;38907;45.562;8.856;2023-02-26T05:20:01;8.40;95.70
51021;DHT22;38907;45.562;8.856;2023-02-26T05:25:03;8.30;96.60
51021;DHT22;38907;45.562;8.856;2023-02-26T05:30:07;8.30;99.90
51021;DHT22;38907;45.562;8.856;2023-02-26T05:35:10;8.30;99.90
51021;DHT22;38907;45.562;8.856;2023-02-26T05:40:12;8.30;99.90
51021;DHT22;38907;45.562;8.856;2023-02-26T05:45:14;8.30;99.90
51021;DHT22;38907;45.562;8.856;2023-02-26T05:50:18;8.50;99.90
51021;DHT22;38907;45.562;8.856;2023-02-26T05:55:20;8.60;99.90
51021;DHT22;38907;45.562;8.856;2023-02-26T06:00:21;8.60;99.90
51021;DHT22;38907;45.562;8.856;2023-02-26T06:05:25;8.60;99.90
51021;DHT22;38907;45.562;8.856;2023-02-26T06:10:27;8.50;99.90
51021;DHT22;38907;45.562;8.856;2023-02-26T06:15:28;8.20;99.90
51021;DHT22;38907;45.562;8.856;2023-02-26T06:20:32;8.00;99.90
51021;DHT22;38907;45.562;8.856;2023-02-26T06:25:33;7.90;99.90
51021;DHT22;38907;45.562;8.856;2023-02-26T06:30:36;7.90;99.90
51021;DHT22;38907;45.562;8.856;2023-02-26T06:35:39;7.90;99.90
51021;DHT22;38907;45.562;8.856;2023-02-26T06:40:42;8.10;99.90
51021;DHT22;38907;45.562;8.856;2023-02-26T06:45:44;8.10;99.90
51021;DHT22;38907;45.562;8.856;2023-02-26T06:50:47;7.80;99.90
51021;DHT22;38907;45.562;8.856;2023-02-26T06:55:50;7.70;99.90
51021;DHT22;38907;45.562;8.856;2023-02-26T07:00:52;7.60;99.90
51021;DHT22;38907;45.562;8.856;2023-02-26T07:05:55;7.40;99.90
51021;DHT22;38907;45.562;8.856;2023-02-26T07:10:57;7.30;99.90
51021;DHT22;38907;45.562;8.856;2023-02-26T07:15:59;7.20;99.90
51021;DHT22;38907;45.562;8.856;2023-02-26T07:21:03;7.00;99.90
51021;DHT22;38907;45.562;8.856;2023-02-26T07:26:05;7.30;99.90
51021;DHT22;38907;45.562;8.856;2023-02-26T07:31:08;7.40;99.90
51021;DHT22;38907;45.562;8.856;2023-02-26T07:36:11;7.30;99.90
51021;DHT22;38907;45.562;8.856;2023-02-26T07:41:13;7.10;99.90
51021;DHT22;38907;45.562;8.856;2023-02-26T07:46:15;7.00;99.90
51021;DHT22;38907;45.562;8.856;2023-02-26T07:51:18;7.00;99.90
51021;DHT22;38907;45.562;8.856;2023-02-26T07:56:20;7.00;99.90
51021;DHT22;38907;45.562;8.856;2023-02-26T08:01:22;6.90;99.90
51021;DHT22;38907;45.562;8.856;2023-02-26T08:06:26;7.00;99.90
51021;DHT22;38907;45.562;8.856;2023-02-26T08:11:28;6.70;99.90
51021;DHT22;38907;45.562;8.856;2023-02-26T08:16:29;6.60;99.90
51021;DHT22;38907;45.562;8.856;2023-02-26T08:21:33;6.70;99.90
51021;DHT22;38907;45.562;8.856;2023-02-26T08:26:35;6.40;99.90
51021;DHT22;38907;45.562;8.856;2023-02-26T08:31:37;6.40;99.90
51021;DHT22;38907;45.562;8.856;2023-02-26T08:36:41;6.60;99.90
51021;DHT22;38907;45.562;8.856;2023-02-26T08:41:42;6.50;99.90
51021;DHT22;38907;45.562;8.856;2023-02-26T08:46:44;6.20;99.90
51021;DHT22;38907;45.562;8.856;2023-02-26T08:51:48;6.50;99.90
51021;DHT22;38907;45.562;8.856;2023-02-26T08:56:50;6.30;99.90
51021;DHT22;38907;45.562;8.856;2023-02-26T09:01:52;6.50;99.90
51021;DHT22;38907;45.562;8.856;2023-02-26T09:06:56;6.60;99.90
51021;DHT22;38907;45.562;8.856;2023-02-26T09:11:57;6.60;99.90
51021;DHT22;38907;45.562;8.856;2023-02-26T09:16:59;6.80;99.90
51021;DHT22;38907;45.562;8.856;2023-02-26T09:22:03;7.00;99.90
51021;DHT22;38907;45.562;8.856;2023-02-26T09:27:05;7.00;99.90
51021;DHT22;38907;45.562;8.856;2023-02-26T09:32:07;7.00;99.90
51021;DHT22;38907;45.562;8.856;2023-02-26T09:37:10;6.80;99.90
51021;DHT22;38907;45.562;8.856;2023-02-26T09:42:21;6.70;99.90
51021;DHT22;38907;45.562;8.856;2023-02-26T09:47:30;7.00;99.90
51021;DHT22;38907;45.562;8.856;2023-02-26T09:52:44;7.10;99.90
51021;DHT22;38907;45.562;8.856;2023-02-26T09:57:48;7.20;99.90
51021;DHT22;38907;45.562;8.856;2023-02-26T10:02:59;6.90;99.90
51021;DHT22;38907;45.562;8.856;2023-02-26T10:08:12;6.90;99.90
51021;DHT22;38907;45.562;8.856;2023-02-26T10:13:33;6.70;99.90
51021;DHT22;38907;45.562;8.856;2023-02-26T10:18:41;6.60;99.90
51021;DHT22;38907;45.562;8.856;2023-02-26T10:23:51;6.30;99.90
51021;DHT22;38907;45.562;8.856;2023-02-26T10:29:02;6.40;99.90
51021;DHT22;38907;45.562;8.856;2023-02-26T10:34:16;6.20;99.90
51021;DHT22;38907;45.562;8.856;2023-02-26T10:39:28;6.30;99.90
51021;DHT22;38907;45.562;8.856;2023-02-26T10:44:37;6.30;99.90
51021;DHT22;38907;45.562;8.856;2023-02-26T10:49:51;6.20;99.90
51021;DHT22;38907;45.562;8.856;2023-02-26T10:55:07;6.20;99.90
51021;DHT22;38907;45.562;8.856;2023-02-26T11:00:17;6.10;99.90
51021;DHT22;38907;45.562;8.856;2023-02-26T11:05:23;6.20;99.90
51021;DHT22;38907;45.562;8.856;2023-02-26T11:10:35;6.20;99.90
51021;DHT22;38907;45.562;8.856;2023-02-26T11:15:38;6.10;99.90
51021;DHT22;38907;45.562;8.856;2023-02-26T11:20:42;5.60;99.90
51021;DHT22;38907;45.562;8.856;2023-02-26T11:25:52;5.80;99.90
51021;DHT22;38907;45.562;8.856;2023-02-26T11:30:54;5.90;99.90
51021;DHT22;38907;45.562;8.856;2023-02-26T11:35:59;6.20;99.90
51021;DHT22;38907;45.562;8.856;2023-02-26T11:41:04;5.50;99.90
51021;DHT22;38907;45.562;8.856;2023-02-26T11:46:10;5.20;99.90
51021;DHT22;38907;45.562;8.856;2023-02-26T11:51:14;4.70;99.90
51021;DHT22;38907;45.562;8.856;2023-02-26T11:56:24;4.90;99.90
51021;DHT22;38907;45.562;8.856;2023-02-26T12:01:28;4.90;99.90
51021;DHT22;38907;45.562;8.856;2023-02-26T12:06:30;4.90;99.90
51021;DHT22;38907;45.562;8.856;2023-02-26T12:11:44;5.00;99.90
51021;DHT22;38907;45.562;8.856;2023-02-26T12:16:56;5.10;99.90
51021;DHT22;38907;45.562;8.856;2023-02-26T12:22:23;5.40;99.90
51021;DHT22;38907;45.562;8.856;2023-02-26T12:27:36;5.40;99.90
51021;DHT22;38907;45.562;8.856;2023-02-26T12:32:49;5.40;99.90
51021;DHT22;38907;45.562;8.856;2023-02-26T12:38:08;5.60;99.90
51021;DHT22;38907;45.562;8.856;2023-02-26T12:43:22;5.70;99.90
51021;DHT22;38907;45.562;8.856;2023-02-26T12:48:54;5.80;99.90
51021;DHT22;38907;45.562;8.856;2023-02-26T12:54:33;5.70;99.90
51021;DHT22;38907;45.562;8.856;2023-02-26T13:05:29;5.50;99.90
51021;DHT22;38907;45.562;8.856;2023-02-26T13:10:45;5.40;99.90
51021;DHT22;38907;45.562;8.856;2023-02-26T13:21:20;5.70;99.90
51021;DHT22;38907;45.562;8.856;2023-02-26T13:26:27;5.70;99.90
51021;DHT22;38907;45.562;8.856;2023-02-26T13:31:33;5.80;99.90
51021;DHT22;38907;45.562;8.856;2023-02-26T13:36:36;5.90;99.90
51021;DHT22;38907;45.562;8.856;2023-02-26T13:41:46;5.80;99.90
51021;DHT22;38907;45.562;8.856;2023-02-26T13:47:20;5.60;99.90
51021;DHT22;38907;45.562;8.856;2023-02-26T13:52:27;5.50;99.90
51021;DHT22;38907;45.562;8.856;2023-02-26T13:57:37;5.50;99.90
51021;DHT22;38907;45.562;8.856;2023-02-26T14:02:49;5.60;99.90
51021;DHT22;38907;45.562;8.856;2023-02-26T14:07:53;5.80;99.90
51021;DHT22;38907;45.562;8.856;2023-02-26T14:13:13;5.70;99.90
51021;DHT22;38907;45.562;8.856;2023-02-26T14:18:25;5.70;99.90
51021;DHT22;38907;45.562;8.856;2023-02-26T14:23:35;5.80;99.90
51021;DHT22;38907;45.562;8.856;2023-02-26T14:28:44;5.70;99.90
51021;DHT22;38907;45.562;8.856;2023-02-26T14:34:03;5.70;99.90
51021;DHT22;38907;45.562;8.856;2023-02-26T14:39:17;5.90;99.90
51021;DHT22;38907;45.562;8.856;2023-02-26T14:44:26;6.10;99.90
51021;DHT22;38907;45.562;8.856;2023-02-26T14:49:33;6.20;99.90
51021;DHT22;38907;45.562;8.856;2023-02-26T14:54:59;6.20;99.90
51021;DHT22;38907;45.562;8.856;2023-02-26T15:00:25;6.20;99.90
51021;DHT22;38907;45.562;8.856;2023-02-26T15:05:49;6.30;99.90
51021;DHT22;38907;45.562;8.856;2023-02-26T15:11:22;6.30;99.90
51021;DHT22;38907;45.562;8.856;2023-02-26T15:16:39;6.10;99.90
51021;DHT22;38907;45.562;8.856;2023-02-26T15:21:55;6.00;99.90
51021;DHT22;38907;45.562;8.856;2023-02-26T15:27:03;6.10;99.90
51021;DHT22;38907;45.562;8.856;2023-02-26T15:32:14;6.10;99.90
51021;DHT22;38907;45.562;8.856;2023-02-26T15:37:20;6.20;99.90
51021;DHT22;38907;45.562;8.856;2023-02-26T15:42:28;6.20;99.90
51021;DHT22;38907;45.562;8.856;2023-02-26T15:47:33;6.10;99.90
51021;DHT22;38907;45.562;8.856;2023-02-26T15:52:37;6.30;99.90
51021;DHT22;38907;45.562;8.856;2023-02-26T15:57:39;6.30;99.90
51021;DHT22;38907;45.562;8.856;2023-02-26T16:02:41;6.40;99.90
51021;DHT22;38907;45.562;8.856;2023-02-26T16:07:46;6.10;99.90
51021;DHT22;38907;45.562;8.856;2023-02-26T16:12:48;6.20;99.90
51021;DHT22;38907;45.562;8.856;2023-02-26T16:17:54;6.00;99.90
51021;DHT22;38907;45.562;8.856;2023-02-26T16:23:01;6.00;99.90
51021;DHT22;38907;45.562;8.856;2023-02-26T16:28:06;6.20;99.90
51021;DHT22;38907;45.562;8.856;2023-02-26T16:33:12;6.20;99.90
51021;DHT22;38907;45.562;8.856;2023-02-26T16:38:19;6.20;99.90
51021;DHT22;38907;45.562;8.856;2023-02-26T16:43:34;6.30;99.90
51021;DHT22;38907;45.562;8.856;2023-02-26T16:48:47;5.90;99.90
51021;DHT22;38907;45.562;8.856;2023-02-26T16:53:57;6.10;99.90
51021;DHT22;38907;45.562;8.856;2023-02-26T16:59:05;5.90;99.90
51021;DHT22;38907;45.562;8.856;2023-02-26T17:04:14;5.90;99.90
51021;DHT22;38907;45.562;8.856;2023-02-26T17:09:35;5.90;99.90
51021;DHT22;38907;45.562;8.856;2023-02-26T17:14:40;5.60;99.90
51021;DHT22;38907;45.562;8.856;2023-02-26T17:19:43;5.70;99.90
51021;DHT22;38907;45.562;8.856;2023-02-26T17:24:47;5.80;99.90
51021;DHT22;38907;45.562;8.856;2023-02-26T17:29:50;5.80;99.90
51021;DHT22;38907;45.562;8.856;2023-02-26T17:34:52;5.70;99.90
51021;DHT22;38907;45.562;8.856;2023-02-26T17:39:56;5.70;99.90
51021;DHT22;38907;45.562;8.856;2023-02-26T17:44:59;5.80;99.90
51021;DHT22;38907;45.562;8.856;2023-02-26T17:50:05;5.50;99.90
51021;DHT22;38907;45.562;8.856;2023-02-26T17:55:12;5.70;99.90
51021;DHT22;38907;45.562;8.856;2023-02-26T18:00:14;5.50;99.90
51021;DHT22;38907;45.562;8.856;2023-02-26T18:05:17;5.70;99.90
51021;DHT22;38907;45.562;8.856;2023-02-26T18:10:22;5.60;99.90
51021;DHT22;38907;45.562;8.856;2023-02-26T18:15:25;5.50;99.90
51021;DHT22;38907;45.562;8.856;2023-02-26T18:20:27;5.40;99.90
51021;DHT22;38907;45.562;8.856;2023-02-26T18:25:30;5.20;99.90
51021;DHT22;38907;45.562;8.856;2023-02-26T18:30:34;5.20;99.90
51021;DHT22;38907;45.562;8.856;2023-02-26T18:35:39;5.40;99.90
51021;DHT22;38907;45.562;8.856;2023-02-26T18:40:47;5.20;99.90
51021;DHT22;38907;45.562;8.856;2023-02-26T18:45:50;4.90;99.90
51021;DHT22;38907;45.562;8.856;2023-02-26T18:50:52;4.80;99.90
51021;DHT22;38907;45.562;8.856;2023-02-26T18:55:56;4.90;99.90
51021;DHT22;38907;45.562;8.856;2023-02-26T19:00:58;5.00;99.90
51021;DHT22;38907;45.562;8.856;2023-02-26T19:06:01;5.30;99.90
51021;DHT22;38907;45.562;8.856;2023-02-26T19:11:05;5.40;99.90
51021;DHT22;38907;45.562;8.856;2023-02-26T19:16:07;5.60;99.90
51021;DHT22;38907;45.562;8.856;2023-02-26T19:21:09;5.40;99.90
51021;DHT22;38907;45.562;8.856;2023-02-26T19:26:12;5.60;99.90
51021;DHT22;38907;45.562;8.856;2023-02-26T19:31:13;5.80;99.90
51021;DHT22;38907;45.562;8.856;2023-02-26T19:36:16;5.80;99.90
51021;DHT22;38907;45.562;8.856;2023-02-26T19:41:25;5.90;99.90
51021;DHT22;38907;45.562;8.856;2023-02-26T19:46:27;5.90;99.90
51021;DHT22;38907;45.562;8.856;2023-02-26T19:51:29;5.90;99.90
51021;DHT22;38907;45.562;8.856;2023-02-26T19:56:32;5.80;99.90
51021;DHT22;38907;45.562;8.856;2023-02-26T20:01:35;5.80;99.90
51021;DHT22;38907;45.562;8.856;2023-02-26T20:06:37;5.80;99.90
51021;DHT22;38907;45.562;8.856;2023-02-26T20:11:40;5.90;99.90
51021;DHT22;38907;45.562;8.856;2023-02-26T20:16:42;5.90;99.90
51021;DHT22;38907;45.562;8.856;2023-02-26T20:21:44;5.80;99.90
51021;DHT22;38907;45.562;8.856;2023-02-26T20:26:47;5.80;99.90
51021;DHT22;38907;45.562;8.856;2023-02-26T20:31:50;5.70;99.90
51021;DHT22;38907;45.562;8.856;2023-02-26T20:36:52;5.60;99.90
51021;DHT22;38907;45.562;8.856;2023-02-26T20:41:55;5.60;99.90
51021;DHT22;38907;45.562;8.856;2023-02-26T20:46:57;5.50;99.90
51021;DHT22;38907;45.562;8.856;2023-02-26T20:52:01;5.40;99.90
51021;DHT22;38907;45.562;8.856;2023-02-26T20:57:04;5.30;99.90
51021;DHT22;38907;45.562;8.856;2023-02-26T21:02:09;5.20;99.90
51021;DHT22;38907;45.562;8.856;2023-02-26T21:07:11;5.10;99.90
51021;DHT22;38907;45.562;8.856;2023-02-26T21:12:22;5.10;99.90
51021;DHT22;38907;45.562;8.856;2023-02-26T21:17:25;5.30;99.90
51021;DHT22;38907;45.562;8.856;2023-02-26T21:22:27;5.20;99.90
51021;DHT22;38907;45.562;8.856;2023-02-26T21:27:31;5.10;99.90
51021;DHT22;38907;45.562;8.856;2023-02-26T21:32:33;5.20;99.90
51021;DHT22;38907;45.562;8.856;2023-02-26T21:37:35;5.00;99.90
51021;DHT22;38907;45.562;8.856;2023-02-26T21:42:39;4.90;99.90
51021;DHT22;38907;45.562;8.856;2023-02-26T21:47:41;5.00;99.90
51021;DHT22;38907;45.562;8.856;2023-02-26T21:52:44;4.90;99.90
51021;DHT22;38907;45.562;8.856;2023-02-26T21:57:47;4.90;99.90
51021;DHT22;38907;45.562;8.856;2023-02-26T22:02:49;4.90;99.90
51021;DHT22;38907;45.562;8.856;2023-02-26T22:07:51;4.90;99.90
51021;DHT22;38907;45.562;8.856;2023-02-26T22:12:54;4.70;99.90
51021;DHT22;38907;45.562;8.856;2023-02-26T22:17:56;4.90;99.90
51021;DHT22;38907;45.562;8.856;2023-02-26T22:22:58;4.70;99.90
51021;DHT22;38907;45.562;8.856;2023-02-26T22:28:01;4.80;99.90
51021;DHT22;38907;45.562;8.856;2023-02-26T22:33:03;4.70;99.90
51021;DHT22;38907;45.562;8.856;2023-02-26T22:38:05;4.70;99.90
51021;DHT22;38907;45.562;8.856;2023-02-26T22:43:08;4.60;99.90
51021;DHT22;38907;45.562;8.856;2023-02-26T22:48:10;4.60;99.90
51021;DHT22;38907;45.562;8.856;2023-02-26T22:53:12;4.50;99.90
51021;DHT22;38907;45.562;8.856;2023-02-26T22:58:15;4.40;99.90
51021;DHT22;38907;45.562;8.856;2023-02-26T23:03:17;4.50;99.90
51021;DHT22;38907;45.562;8.856;2023-02-26T23:08:19;4.40;99.90
51021;DHT22;38907;45.562;8.856;2023-02-26T23:13:22;4.40;99.90
51021;DHT22;38907;45.562;8.856;2023-02-26T23:18:25;4.30;99.90
51021;DHT22;38907;45.562;8.856;2023-02-26T23:23:27;4.20;99.90
51021;DHT22;38907;45.562;8.856;2023-02-26T23:28:31;4.10;99.90
51021;DHT22;38907;45.562;8.856;2023-02-26T23:33:33;4.10;99.90
51021;DHT22;38907;45.562;8.856;2023-02-26T23:38:35;4.00;99.90
51021;DHT22;38907;45.562;8.856;2023-02-26T23:43:38;4.00;99.90
51021;DHT22;38907;45.562;8.856;2023-02-26T23:48:40;4.10;99.90
51021;DHT22;38907;45.562;8.856;2023-02-26T23:53:42;4.10;99.90
51021;DHT22;38907;45.562;8.856;2023-02-26T23:58:45;4.10;99.90
